Aeroporto :
LOGIN :

Iscrizione | Disclaimer

   EN    FR    IT 

 










Sommario :    VFR   VFR Marginale   IFR   IFR Intensivo   IFR Molto Intensivo
Visibilità : 
Base nubi : 
>= 8 km
>= 3000ft
5 / 8 km
1000 / 3000 ft
1500m / 5 km
500 / 1000 ft
800 / 1500m
200 / 500 ft
< 800m
< 200 ft
Simboli :   Temporali  Nebbia  Neve Forte  Precipitazioni Forti  Vento > 20 kt
SIGMETs :   Varie  Temporali  Ghiacco  Turbolenza  Onda orograficha  Ceneri Vulcaniche






- Altitudine del aeroporto : 36 ft
- Codice IATA : LTQ


LFAT - Le Touquet

ULTIMO METAR :
  • 120530Z AUTO 30008KT 9999 BKN032 BKN050 BKN110 08/02 Q1000

METARs OBSOLETI :
  • 120500Z AUTO 31010KT 9999 FEW029/// SCT038/// OVC150/// ///CB 08/03 Q1000
  • 120430Z AUTO VRB03KT 9999 SCT030/// SCT041/// BKN054/// ///TCU 06/04 Q1001
  • 120400Z AUTO 13003KT 080V160 9999 BKN030/// BKN035/// BKN056/// ///TCU 06/05 Q1001
  • 120330Z AUTO VRB02KT 9999 BKN032/// BKN040/// BKN058/// ///CB 06/04 Q1001
  • 120300Z AUTO 10004KT 360V140 9999 SCT035/// BKN056/// BKN070/// ///CB 06/04 Q1001

Previsioni scadute.
ATIS : +33 3 21 06 62 84



MetMap, La meteo Aeronautica in un colpo d'occhio ! - Copyright ORBIFLY Dicembre 2007 - Disclaimer

ORBIFLY MET'MAP TEAM :

Programmazione e sviluppo : Alexandra Zaïnal
Concezione e sviluppo : Baudouin d'Aumeries
Co-Programmazione e sviluppo : Marc-Olivier Méhu
Supporto tecnico e logistico : Manuel Goepfert
Aiuto per la traduzione : Arnaldo La Scala

Contatto : metmap@orbifly.com




FONTI E CREDITI :

   NOAA